ADDS METAR Data INFO
IDs: Format: Raw Decoded Include TAF

Data at: 2225 UTC 24 Jun 2018

KFDR 242153Z AUTO 09025G32KT 10SM CLR 32/19 A2974 RMK AO2 PK WND 08035/2054 SLP053 T03220189
KFDR 242053Z AUTO 07027KT 10SM CLR 31/18 A2976 RMK AO2 PK WND 07034/2006 SLP058 T03110183 50001
KFDR 241953Z AUTO 07028G35KT 10SM CLR 29/18 A2979 RMK AO2 PK WND 04042/1913 SLP068 T02940178
KFDR 241853Z AUTO VRB03KT 10SM FEW045 BKN060 OVC075 33/21 A2980 RMK AO2 LTG DSNT N AND NE SLP069 T03280211
KFDR 241753Z AUTO 17014G26KT 10SM FEW045 34/21 A2976 RMK AO2 PK WND 16031/1711 SLP054 T03390211 10356 20256 55004
KFDR 241653Z AUTO 16023G30KT 10SM CLR 34/21 A2974 RMK AO2 PK WND 14030/1608 SLP048 T03390211
KFDR 241553Z AUTO 14021G28KT 10SM SCT033 33/22 A2975 RMK AO2 PK WND 14029/1543 SLP052 T03280222
KFDR 241453Z AUTO 12023G28KT 10SM CLR 31/22 A2977 RMK AO2 PK WND 12028/1452 SLP060 T03110222 53007
KFDR 241353Z AUTO 11021KT 10SM CLR 28/22 A2977 RMK AO2 PK WND 10028/1337 SLP058 T02830222
KFDR 241253Z AUTO 10018KT 10SM CLR 26/22 A2975 RMK AO2 SLP051 T02610222
KFDR 241153Z AUTO 08016KT 10SM CLR 26/22 A2975 RMK AO2 SLP052 T02560217 10289 20244 50031
KFDR 241053Z AUTO 06012KT 10SM BKN110 25/21 A2975 RMK AO2 SLP053 T02500211
KFDR 240953Z AUTO 03009KT 10SM CLR 24/21 A2968 RMK AO2 LTG DSNT N SLP030 T02440206
KFDR 240853Z AUTO 11007KT 10SM CLR 25/20 A2965 RMK AO2 SLP020 T02500200 55011
KFDR 240753Z AUTO 12006KT 10SM CLR 26/20 A2962 RMK AO2 SLP010 T02610200
KFDR 240653Z AUTO 10007KT 10SM CLR 27/21 A2967 RMK AO2 SLP027 T02720206
KFDR 240553Z AUTO 13012KT 10SM CLR 29/21 A2969 RMK AO2 SLP031 T02890206 10350 20289 403610217 50000
KFDR 240453Z AUTO 11014KT 10SM CLR 29/21 A2971 RMK AO2 SLP041 T02890211
KFDR 240353Z AUTO 09016KT 10SM CLR 29/21 A2971 RMK AO2 PK WND 10026/0338 SLP039 T02940211
KFDR 240253Z AUTO 09012KT 10SM CLR 31/21 A2969 RMK AO2 LTG DSNT E TSB02E17 SLP032 T03110206 53010
KFDR 240249Z AUTO 08014KT 10SM CLR 31/21 A2968 RMK AO2 LTG DSNT E TSB02E17
KFDR 240223Z AUTO 06015G20KT 10SM VCTS FEW055 SCT070 BKN085 31/22 A2968 RMK AO2 LTG DSNT NE AND E TSB02E17 T03110217
KFDR 240208Z AUTO 07008KT 10SM TS FEW085 33/21 A2969 RMK AO2 LTG DSNT N-E TSB02 PRESRR T03280206
KFDR 240153Z AUTO 12012KT 10SM VCTS CLR 33/21 A2966 RMK AO2 LTG DSNT ALQDS SLP024 T03330206
KFDR 240101Z AUTO 11016KT 10SM VCTS CLR 34/22 A2965 RMK AO2 LTG DSNT NW T03440217
KFDR 240053Z AUTO 10015KT 10SM FEW070 34/22 A2965 RMK AO2 LTG DSNT NW SLP021 T03440217
KFDR 232353Z AUTO 13014KT 10SM FEW065 FEW080 SCT100 35/21 A2968 RMK AO2 SLP029 T03500211 10361 20333 58015
KFDR 232253Z AUTO 14013KT 10SM SCT060 35/21 A2969 RMK AO2 SLP035 T03500211
KFDR 232153Z AUTO 16017G22KT 10SM CLR 36/21 A2971 RMK AO2 PK WND 15029/2121 SLP041 T03610211
KFDR 232053Z AUTO 15016G23KT 10SM SCT055 BKN070 BKN095 36/21 A2972 RMK AO2 SLP045 T03560206 56023
KFDR 231953Z AUTO 16017G23KT 10SM FEW070 35/20 A2974 RMK AO2 PK WND 15027/1934 SLP050 T03500200
KFDR 231853Z AUTO 16015G22KT 10SM CLR 34/21 A2976 RMK AO2 PK WND 15026/1803 SLP059 T03440206
KFDR 231753Z AUTO 15019G26KT 10SM CLR 33/20 A2979 RMK AO2 PK WND 12031/1659 SLP070 T03330200 10333 20222 56014
KFDR 231653Z AUTO 14027KT 10SM FEW070 32/18 A2981 RMK AO2 PK WND 13033/1629 SLP072 T03170183
KFDR 231553Z AUTO 13023G29KT 10SM FEW060 SCT075 BKN085 29/17 A2982 RMK AO2 PK WND 13029/1553 SLP078 T02940167 $
KFDR 231453Z AUTO 12019KT 10SM BKN065 28/17 A2984 RMK AO2 SLP083 T02780167 51008 $
KFDR 231353Z AUTO 13019KT 10SM FEW075 26/18 A2983 RMK AO2 SLP080 T02560178 $
KFDR 231253Z AUTO 09014KT 10SM BKN065 BKN080 23/18 A2983 RMK AO2 LTG DSNT S SLP080 T02280178 $
KFDR 231153Z AUTO 09014KT 10SM CLR 22/18 A2981 RMK AO2 LTG DSNT NE AND SW RAB20E30 TSE08 SLP074 P0000 60000 T02220178 10228 20217 50013 $
KFDR 231126Z AUTO 10019KT 10SM -RA FEW055 SCT065 BKN085 22/18 A2979 RMK AO2 LTG DSNT N AND NE RAB20 TSE08 P0000 T02170178 $
KFDR 231114Z AUTO 10018G25KT 10SM VCTS BKN060 22/17 A2980 RMK AO2 LTG DSNT NE AND SW TSE08 PRESFR T02220172 $
KFDR 231053Z AUTO 08015KT 10SM TS BKN070 BKN085 22/17 A2983 RMK AO2 LTG DSNT W-N TSB50 SLP079 T02220172 $